<?xml version="1.0" encoding="utf-8"?>
<gpx xmlns:xsi="http://www.w3.org/2001/XMLSchema-instance" xmlns:xsd="http://www.w3.org/2001/XMLSchema" version="1.1" creator="Shapelink.com" xmlns="http://www.topografix.com/GPX/1/1" xmlns:gpxtpx="http://www.garmin.com/xmlschemas/TrackPointExtension/v1">
  <metadata>
    <name>Övrigt 2.08 km, 2019-08-07</name>
    <desc></desc>
    <author><name>Marian Moron</name></author> 
    <time>2019-08-07T20:39:50Z</time>
  </metadata>
  <trk>
    <name>Övrigt 2.08 km, 2019-08-07</name>
    <trkseg>
      <trkpt lat="51.229773989198" lon="4.457793737649">
        <ele>12</ele>
        <time>2019-08-07T20:39:50Z</time>
      </trkpt>
      <trkpt lat="51.229939615542" lon="4.458473174463">
        <ele>0.8</ele>
        <time>2019-08-07T20:40:18Z</time>
      </trkpt>
      <trkpt lat="51.229988649657" lon="4.458747430231">
        <ele>4</ele>
        <time>2019-08-07T20:40:31Z</time>
      </trkpt>
      <trkpt lat="51.230015555556" lon="4.458767462972">
        <ele>6.8</ele>
        <time>2019-08-07T20:40:36Z</time>
      </trkpt>
      <trkpt lat="51.230209428903" lon="4.458894281119">
        <ele>7.2</ele>
        <time>2019-08-07T20:40:59Z</time>
      </trkpt>
      <trkpt lat="51.230439931153" lon="4.459048256622">
        <ele>7</ele>
        <time>2019-08-07T20:41:30Z</time>
      </trkpt>
      <trkpt lat="51.230501119023" lon="4.459298037242">
        <ele>9.6</ele>
        <time>2019-08-07T20:41:45Z</time>
      </trkpt>
      <trkpt lat="51.230560965789" lon="4.459488976924">
        <ele>10.2</ele>
        <time>2019-08-07T20:42:00Z</time>
      </trkpt>
      <trkpt lat="51.230684598814" lon="4.459918381661">
        <ele>11.4</ele>
        <time>2019-08-07T20:42:41Z</time>
      </trkpt>
      <trkpt lat="51.230731118359" lon="4.460364550198">
        <ele>10.4</ele>
        <time>2019-08-07T20:43:19Z</time>
      </trkpt>
      <trkpt lat="51.230726256857" lon="4.460648026056">
        <ele>10.8</ele>
        <time>2019-08-07T20:43:54Z</time>
      </trkpt>
      <trkpt lat="51.230558618857" lon="4.460718601654">
        <ele>11.8</ele>
        <time>2019-08-07T20:44:17Z</time>
      </trkpt>
      <trkpt lat="51.230360889836" lon="4.460792110917">
        <ele>12.8</ele>
        <time>2019-08-07T20:44:37Z</time>
      </trkpt>
      <trkpt lat="51.230379413835" lon="4.460747267752">
        <ele>20.4</ele>
        <time>2019-08-07T20:45:45Z</time>
      </trkpt>
      <trkpt lat="51.22993391585" lon="4.460907697318">
        <ele>20.2</ele>
        <time>2019-08-07T20:46:16Z</time>
      </trkpt>
      <trkpt lat="51.229930898366" lon="4.461033006723">
        <ele>25.6</ele>
        <time>2019-08-07T20:46:24Z</time>
      </trkpt>
      <trkpt lat="51.229992337693" lon="4.461430392602">
        <ele>20.2</ele>
        <time>2019-08-07T20:46:43Z</time>
      </trkpt>
      <trkpt lat="51.230022596352" lon="4.461698529583">
        <ele>11.6</ele>
        <time>2019-08-07T20:46:57Z</time>
      </trkpt>
      <trkpt lat="51.230190569628" lon="4.462367489022">
        <ele>2.6</ele>
        <time>2019-08-07T20:47:25Z</time>
      </trkpt>
      <trkpt lat="51.230320069983" lon="4.463040304135">
        <ele>1.4</ele>
        <time>2019-08-07T20:48:07Z</time>
      </trkpt>
      <trkpt lat="51.230430878701" lon="4.46341707054">
        <ele>0.2</ele>
        <time>2019-08-07T20:48:37Z</time>
      </trkpt>
      <trkpt lat="51.230478655531" lon="4.463635921949">
        <ele>1.2</ele>
        <time>2019-08-07T20:48:54Z</time>
      </trkpt>
      <trkpt lat="51.230620896374" lon="4.464163478735">
        <ele>1.4</ele>
        <time>2019-08-07T20:49:20Z</time>
      </trkpt>
      <trkpt lat="51.230698512768" lon="4.464507136635">
        <ele>0</ele>
        <time>2019-08-07T20:49:47Z</time>
      </trkpt>
      <trkpt lat="51.230774871877" lon="4.464885411782">
        <ele>0</ele>
        <time>2019-08-07T20:50:08Z</time>
      </trkpt>
      <trkpt lat="51.230822313431" lon="4.465387152316">
        <ele>2.6</ele>
        <time>2019-08-07T20:50:43Z</time>
      </trkpt>
      <trkpt lat="51.230820301775" lon="4.46611268958">
        <ele>0</ele>
        <time>2019-08-07T20:51:05Z</time>
      </trkpt>
      <trkpt lat="51.230789791659" lon="4.466850464418">
        <ele>0</ele>
        <time>2019-08-07T20:51:24Z</time>
      </trkpt>
      <trkpt lat="51.230742098648" lon="4.467299818077">
        <ele>0</ele>
        <time>2019-08-07T20:51:50Z</time>
      </trkpt>
      <trkpt lat="51.230650484481" lon="4.467346756717">
        <ele>1.8</ele>
        <time>2019-08-07T20:52:07Z</time>
      </trkpt>
      <trkpt lat="51.230246141625" lon="4.467498469107">
        <ele>0.8</ele>
        <time>2019-08-07T20:52:50Z</time>
      </trkpt>
      <trkpt lat="51.23000180924" lon="4.467589664179">
        <ele>2</ele>
        <time>2019-08-07T20:53:14Z</time>
      </trkpt>
      <trkpt lat="51.22956511225" lon="4.467722768751">
        <ele>4</ele>
        <time>2019-08-07T20:53:51Z</time>
      </trkpt>
      <trkpt lat="51.229391439282" lon="4.467686642762">
        <ele>4.4</ele>
        <time>2019-08-07T20:54:18Z</time>
      </trkpt>
      <trkpt lat="51.229337459846" lon="4.467651690239">
        <ele>3.2</ele>
        <time>2019-08-07T20:54:34Z</time>
      </trkpt>
      <trkpt lat="51.228888273825" lon="4.467518920943">
        <ele>4.4</ele>
        <time>2019-08-07T20:55:16Z</time>
      </trkpt>
      <trkpt lat="51.228802862264" lon="4.467465695878">
        <ele>4.8</ele>
        <time>2019-08-07T20:55:43Z</time>
      </trkpt>
      <trkpt lat="51.228631452409" lon="4.467425965672">
        <ele>3</ele>
        <time>2019-08-07T20:56:01Z</time>
      </trkpt>
      <trkpt lat="51.228382929074" lon="4.467367208553">
        <ele>7.6</ele>
        <time>2019-08-07T20:56:27Z</time>
      </trkpt>
      <trkpt lat="51.228150498987" lon="4.467158918338">
        <ele>12.6</ele>
        <time>2019-08-07T20:56:59Z</time>
      </trkpt>
      <trkpt lat="51.227844894913" lon="4.466732614904">
        <ele>6.8</ele>
        <time>2019-08-07T20:58:13Z</time>
      </trkpt>
      <trkpt lat="51.227832908796" lon="4.466707972118">
        <ele>6.8</ele>
        <time>2019-08-07T20:58:15Z</time>
      </trkpt>
      <trkpt lat="51.227832322063" lon="4.466660614383">
        <ele>6.8</ele>
        <time>2019-08-07T20:58:18Z</time>
      </trkpt>
      <trkpt lat="51.227870627346" lon="4.466484510664">
        <ele>4.6</ele>
        <time>2019-08-07T20:58:30Z</time>
      </trkpt>
      <trkpt lat="51.227911028104" lon="4.466410582306">
        <ele>6.2</ele>
        <time>2019-08-07T20:58:36Z</time>
      </trkpt>
      <trkpt lat="51.227932485768" lon="4.466168261577">
        <ele>6.2</ele>
        <time>2019-08-07T20:59:07Z</time>
      </trkpt>
      <trkpt lat="51.227920834927" lon="4.466064493655">
        <ele>3.4</ele>
        <time>2019-08-07T20:59:15Z</time>
      </trkpt>
      <trkpt lat="51.227918990909" lon="4.46603389972">
        <ele>3</ele>
        <time>2019-08-07T20:59:17Z</time>
      </trkpt>
      <trkpt lat="51.227897197969" lon="4.465324874799">
        <ele>0</ele>
        <time>2019-08-07T21:00:03Z</time>
      </trkpt>
      <trkpt lat="51.22784598456" lon="4.464851884182">
        <ele>0</ele>
        <time>2019-08-07T21:00:32Z</time>
      </trkpt>
      <trkpt lat="51.22784011723" lon="4.464787846466">
        <ele>0</ele>
        <time>2019-08-07T21:00:36Z</time>
      </trkpt>
      <trkpt lat="51.227833914624" lon="4.464757671626">
        <ele>0</ele>
        <time>2019-08-07T21:00:38Z</time>
      </trkpt>
      <trkpt lat="51.2278091042" lon="4.464382749239">
        <ele>0.4</ele>
        <time>2019-08-07T21:01:13Z</time>
      </trkpt>
      <trkpt lat="51.22781497153" lon="4.463991649785">
        <ele>0.8</ele>
        <time>2019-08-07T21:01:48Z</time>
      </trkpt>
      <trkpt lat="51.227809355657" lon="4.463288576013">
        <ele>16.8</ele>
        <time>2019-08-07T21:02:30Z</time>
      </trkpt>
      <trkpt lat="51.227805080888" lon="4.463186652109">
        <ele>19.6</ele>
        <time>2019-08-07T21:02:36Z</time>
      </trkpt>
      <trkpt lat="51.227814384797" lon="4.463042986343">
        <ele>22.4</ele>
        <time>2019-08-07T21:02:48Z</time>
      </trkpt>
      <trkpt lat="51.227675496714" lon="4.462519704326">
        <ele>23.6</ele>
        <time>2019-08-07T21:03:29Z</time>
      </trkpt>
      <trkpt lat="51.227560748503" lon="4.462197001176">
        <ele>14.8</ele>
        <time>2019-08-07T21:03:51Z</time>
      </trkpt>
      <trkpt lat="51.227395457435" lon="4.461554444722">
        <ele>2</ele>
        <time>2019-08-07T21:05:12Z</time>
      </trkpt>
      <trkpt lat="51.227383052223" lon="4.461431649887">
        <ele>1.2</ele>
        <time>2019-08-07T21:05:20Z</time>
      </trkpt>
      <trkpt lat="51.227375257056" lon="4.461117160999">
        <ele>0.2</ele>
        <time>2019-08-07T21:05:47Z</time>
      </trkpt>
      <trkpt lat="51.227403755516" lon="4.460583820702">
        <ele>3.6</ele>
        <time>2019-08-07T21:06:31Z</time>
      </trkpt>
      <trkpt lat="51.22740928757" lon="4.460492374173">
        <ele>6.8</ele>
        <time>2019-08-07T21:06:36Z</time>
      </trkpt>
      <trkpt lat="51.227220024268" lon="4.459836406679">
        <ele>5</ele>
        <time>2019-08-07T21:07:19Z</time>
      </trkpt>
      <trkpt lat="51.227084572764" lon="4.459162837195">
        <ele>0</ele>
        <time>2019-08-07T21:08:02Z</time>
      </trkpt>
      <trkpt lat="51.227092787026" lon="4.459154539114">
        <ele>0</ele>
        <time>2019-08-07T21:08:03Z</time>
      </trkpt>
      <trkpt lat="51.227422447153" lon="4.458974998816">
        <ele>10.6</ele>
        <time>2019-08-07T21:08:50Z</time>
      </trkpt>
      <trkpt lat="51.227846990388" lon="4.458726056386">
        <ele>12</ele>
        <time>2019-08-07T21:09:31Z</time>
      </trkpt>
      <trkpt lat="51.228277233315" lon="4.458487926607">
        <ele>3.4</ele>
        <time>2019-08-07T21:10:13Z</time>
      </trkpt>
      <trkpt lat="51.22835728046" lon="4.458482059277">
        <ele>6.4</ele>
        <time>2019-08-07T21:10:29Z</time>
      </trkpt>
      <trkpt lat="51.228720803463" lon="4.458182825447">
        <ele>11.4</ele>
        <time>2019-08-07T21:11:17Z</time>
      </trkpt>
      <trkpt lat="51.229183651981" lon="4.458150806589">
        <ele>5.8</ele>
        <time>2019-08-07T21:11:59Z</time>
      </trkpt>
      <trkpt lat="51.229553712866" lon="4.457956765604">
        <ele>6.2</ele>
        <time>2019-08-07T21:12:33Z</time>
      </trkpt>
    </trkseg>
  </trk>
</gpx>